Meteo Giornale » Osservazioni meteo Stati Uniti (USA) » Merrill Fld
ore: 12:53 - Osservazioni Meteo Merrill Fld
Lat. 61° 13' N Lon. 149° 51' W Alt. 42 metri s.l.m.
7 °C
Coperto
Temp. 24 Ore
5 °C
14 °C
Nord-Est
11.1 Km/h
Dew point 3 °C
Umidità 75 %
Visibilità 10 Km
Il sole sorge alle ore 06:49
Il sole tramonta alle ore 21:09
| Data e Ora | Cielo e Fenomeni | T °C | DP °C | Um. % | Pres. hPa | Vis. km | Vento km/h | |
|---|---|---|---|---|---|---|---|---|
| Oggi h: 12:53 | Coperto | 7 | 3 | 75 | 1002 | 10 | NE 11.1 | |
| Oggi h: 12:25 | Pioggia | 7 | 4 | 81 | 1002 | 10 | N 9.3 | |
| Oggi h: 11:53 | Coperto | 6 | 3 | 81 | 1002 | 10 | N 18.5 | |
| Oggi h: 11:24 | Coperto | 6 | 3 | 81 | 1002 | 10 | N/NO 14.8 | |
| Oggi h: 10:53 | Coperto | 5 | 3 | 86 | 1002 | 13 | NO 18.5 | |
| Oggi h: 10:40 | Pioggia | 6 | 3 | 81 | 1002 | 13 | NO 20.3 | |
| Oggi h: 10:33 | Pioggia | 6 | 3 | 81 | 1002 | 13 | N/NO 20.3 | |
| Oggi h: 09:53 | Sereno | 8 | 1 | 61 | 1001 | 10 | O/NO 11.1 | |
| Oggi h: 08:53 | Sereno | 6 | 3 | 81 | 1001 | 10 | N 0 | |
| Oggi h: 07:53 | Molto Nuvoloso | 5 | 3 | 86 | 1001 | 10 | E 16.7 | |
| Oggi h: 07:29 | Pioggia | 5 | 3 | 86 | 1002 | 10 | E 20.3 | |
| Oggi h: 06:53 | Pioggia Foschia | 6 | 5 | 93 | 1003 | 5 | N 7.4 | |
| Oggi h: 06:24 | Pioggia | 6 | 5 | 93 | 1002 | 11 | N/NE 13 | |
| Oggi h: 05:53 | Pioggia Foschia | 7 | 4 | 81 | 1002 | 8 | N 14.8 | |
| Oggi h: 05:43 | Pioggia Foschia | 7 | 5 | 87 | 1002 | 6 | N/NO 24 | |
| Oggi h: 05:30 | Pioggia Foschia | 7 | 6 | 93 | 1002 | 5 | N/NO 24 | |
| Oggi h: 05:16 | Pioggia | 9 | 4 | 70 | 1001 | 10 | N/NO 31.5 | |
| Oggi h: 04:53 | Coperto | 11 | 6 | 71 | 1001 | 10 | S/SO 14.8 | |
| Oggi h: 03:53 | Coperto | 11 | 7 | 76 | 1001 | 10 | S/SO 13 | |
| Oggi h: 02:53 | Sereno | 11 | 7 | 76 | 1002 | 10 | S 13 | |
| Oggi h: 01:53 | Sereno | 10 | 6 | 76 | 1003 | 10 | S 7.4 | |
| Oggi h: 00:53 | Molto Nuvoloso | 10 | 7 | 81 | 1004 | 10 | N 0 | |
| Ieri h: 23:53 | Coperto | 11 | 7 | 76 | 1004 | 10 | N 0 | |
| Ieri h: 22:53 | Coperto | 11 | 8 | 81 | 1005 | 10 | N 5.5 | |
| Ieri h: 21:53 | Coperto | 11 | 8 | 81 | 1006 | 10 | NE 9.3 | |
| Ieri h: 20:53 | Pioggia | 12 | 7 | 71 | 1006 | 10 | N 7.4 | |
| Ieri h: 19:53 | Coperto | 13 | 8 | 71 | 1007 | 10 | N 9.3 | |
| Ieri h: 18:53 | Molto Nuvoloso | 13 | 9 | 76 | 1008 | 10 | N 7.4 | |
| Ieri h: 17:53 | Coperto | 13 | 8 | 71 | 1009 | 10 | N 5.5 | |
| Ieri h: 16:53 | Sereno | 14 | 5 | 54 | 1010 | 10 | N 5.5 | |
| Ieri h: 15:53 | Sereno | 14 | 5 | 54 | 1010 | 10 | O 7.4 | |
| Ieri h: 14:53 | Sereno | 14 | 7 | 62 | 1011 | 10 | O/NO 9.3 | |
| Ieri h: 13:53 | Sereno | 14 | 6 | 58 | 1011 | 10 | O 9.3 | |



